Time;durP1;ratioP1;P1;durP2;ratioP2;P2;SDS_P1;SDS_P2;PMS_P1;PMS_P2;Temp;Humidity;BMP_temperature;BMP_pressure;BME280_temperature;BME280_humidity;BME280_pressure;Samples;Min_cycle;Max_cycle;Signal;HPM_P1;HPM_P2
2022/01/08 00:01:17;;;;;;;2.60;1.23;;;2.50;96.20;;;;;;4987379;28;20131;-74
2022/01/08 00:03:45;;;;;;;3.70;1.90;;;2.40;96.20;;;;;;4980276;28;20053;-75
2022/01/08 00:06:13;;;;;;;2.88;1.50;;;2.40;96.20;;;;;;4972684;28;20041;-75
2022/01/08 00:08:40;;;;;;;3.40;1.70;;;2.40;96.20;;;;;;5009446;28;20748;-75
2022/01/08 00:11:07;;;;;;;2.95;1.30;;;2.30;96.20;;;;;;4969994;28;20058;-74
2022/01/08 00:13:37;;;;;;;2.75;1.45;;;2.30;96.20;;;;;;5015366;28;20051;-74
2022/01/08 00:16:04;;;;;;;3.30;1.50;;;2.20;96.10;;;;;;4982193;28;20057;-74
2022/01/08 00:18:31;;;;;;;2.72;1.10;;;2.20;96.20;;;;;;4962892;28;20050;-75
2022/01/08 00:20:58;;;;;;;2.60;1.27;;;2.20;96.20;;;;;;4993072;28;20753;-74
2022/01/08 00:23:26;;;;;;;3.45;1.48;;;2.20;96.20;;;;;;4990705;28;20046;-75
2022/01/08 00:25:53;;;;;;;2.72;1.13;;;2.10;96.20;;;;;;4990605;28;20133;-76
2022/01/08 00:28:20;;;;;;;2.55;1.00;;;2.10;96.20;;;;;;4978854;28;20934;-76
2022/01/08 00:30:48;;;;;;;2.63;1.00;;;2.00;96.20;;;;;;4974787;28;20041;-76
2022/01/08 00:33:15;;;;;;;2.57;1.30;;;2.00;96.20;;;;;;4952597;28;20041;-76
2022/01/08 00:35:43;;;;;;;2.53;1.20;;;2.00;96.20;;;;;;5009922;28;20485;-75
2022/01/08 00:38:10;;;;;;;3.83;1.15;;;2.00;96.20;;;;;;4972167;28;20049;-76
2022/01/08 00:40:37;;;;;;;2.95;1.30;;;1.90;96.20;;;;;;4983562;28;20060;-76
2022/01/08 00:43:04;;;;;;;3.05;1.45;;;1.90;96.20;;;;;;4988516;28;21268;-76
2022/01/08 00:45:31;;;;;;;2.00;1.15;;;1.90;96.20;;;;;;4991215;28;20626;-76
2022/01/08 00:47:58;;;;;;;3.15;1.55;;;1.90;96.20;;;;;;4973472;28;20049;-76
2022/01/08 00:50:25;;;;;;;2.15;1.02;;;1.80;96.20;;;;;;4970146;28;20608;-76
2022/01/08 00:52:52;;;;;;;2.83;1.45;;;1.80;96.20;;;;;;4974448;28;20070;-76
2022/01/08 00:55:19;;;;;;;3.07;1.40;;;1.80;96.30;;;;;;4969525;28;20131;-76
2022/01/08 00:57:46;;;;;;;2.75;1.20;;;1.80;96.30;;;;;;4990370;28;20482;-77
2022/01/08 01:00:14;;;;;;;2.13;1.00;;;1.80;96.30;;;;;;4962102;28;20099;-76
2022/01/08 01:02:41;;;;;;;2.88;1.45;;;1.70;96.30;;;;;;4983643;28;20069;-77
2022/01/08 01:05:09;;;;;;;3.97;1.77;;;1.70;96.30;;;;;;4980547;28;20053;-74
2022/01/08 01:07:36;;;;;;;2.97;1.52;;;1.70;96.30;;;;;;4990675;28;20692;-74
2022/01/08 01:10:06;;;;;;;2.80;1.10;;;1.80;96.30;;;;;;4997193;28;20548;-74
2022/01/08 01:12:33;;;;;;;3.15;1.15;;;1.70;96.30;;;;;;4988719;28;20086;-74
2022/01/08 01:15:09;;;;;;;3.90;2.15;;;1.80;96.30;;;;;;4988464;28;20046;-74
2022/01/08 01:17:37;;;;;;;5.20;2.73;;;1.70;96.40;;;;;;5001790;28;20042;-74
2022/01/08 01:20:08;;;;;;;6.80;3.60;;;1.80;96.40;;;;;;4966744;28;20055;-75
2022/01/08 01:22:56;;;;;;;6.00;3.10;;;1.80;96.40;;;;;;4990437;28;20089;-74
2022/01/08 01:25:47;;;;;;;6.13;3.30;;;1.80;96.40;;;;;;4974435;28;20078;-74
2022/01/08 01:28:27;;;;;;;4.47;2.90;;;1.80;96.30;;;;;;4990799;28;20088;-74
2022/01/08 01:41:07;;;;;;;5.73;3.43;;;1.80;96.30;;;;;;4988073;28;20069;-74
2022/01/08 01:47:03;;;;;;;8.63;4.80;;;1.80;96.40;;;;;;4987940;28;20061;-74
2022/01/08 01:49:36;;;;;;;8.93;5.20;;;1.80;96.40;;;;;;4979824;28;20064;-74
2022/01/08 01:52:05;;;;;;;9.77;5.07;;;1.80;96.40;;;;;;4971547;28;20053;-74
2022/01/08 01:54:34;;;;;;;7.47;4.85;;;1.70;96.30;;;;;;4975929;28;20053;-74
2022/01/08 01:57:02;;;;;;;8.43;4.70;;;1.70;96.30;;;;;;4990432;28;20050;-74
2022/01/08 01:59:31;;;;;;;11.20;5.90;;;1.80;96.40;;;;;;4991603;28;20077;-74
2022/01/08 02:01:59;;;;;;;10.47;5.77;;;1.70;96.40;;;;;;5003421;28;20057;-74
2022/01/08 02:04:27;;;;;;;10.37;5.70;;;1.70;96.40;;;;;;4990383;28;20077;-74
2022/01/08 02:06:54;;;;;;;8.90;6.00;;;1.70;96.40;;;;;;4990124;28;20064;-74
2022/01/08 02:09:21;;;;;;;11.30;7.23;;;1.70;96.40;;;;;;4989596;28;20049;-74
2022/01/08 02:12:00;;;;;;;9.77;5.53;;;1.70;96.40;;;;;;4994966;28;20448;-74
2022/01/08 02:14:29;;;;;;;8.07;4.80;;;1.70;96.40;;;;;;4987624;28;20050;-74
2022/01/08 02:16:57;;;;;;;7.93;4.20;;;1.70;96.40;;;;;;4984994;28;20044;-75
2022/01/08 02:19:24;;;;;;;7.73;3.60;;;1.60;96.40;;;;;;4981057;28;20045;-74
2022/01/08 02:21:56;;;;;;;5.13;3.30;;;1.60;96.30;;;;;;4974002;28;20144;-75
2022/01/08 02:24:25;;;;;;;5.78;2.88;;;1.60;96.30;;;;;;4985769;28;20053;-74
2022/01/08 02:26:52;;;;;;;4.83;2.93;;;1.60;96.40;;;;;;4991732;28;20438;-74
2022/01/08 02:29:21;;;;;;;3.90;2.30;;;1.50;96.40;;;;;;4989924;28;20096;-74
2022/01/08 02:31:59;;;;;;;4.30;2.27;;;1.50;96.60;;;;;;4964428;28;20054;-75
2022/01/08 02:34:27;;;;;;;3.05;1.80;;;1.50;96.40;;;;;;4995944;28;20103;-74
2022/01/08 02:36:55;;;;;;;3.23;1.50;;;1.50;96.50;;;;;;4988247;28;20109;-75
2022/01/08 02:39:23;;;;;;;6.20;3.23;;;1.50;96.50;;;;;;5008877;28;20125;-74
2022/01/08 02:41:56;;;;;;;7.30;3.92;;;1.50;96.50;;;;;;4977765;28;20120;-74
2022/01/08 02:44:23;;;;;;;6.10;3.10;;;1.50;96.50;;;;;;4998993;28;20054;-74
2022/01/08 02:46:51;;;;;;;4.83;3.00;;;1.50;96.50;;;;;;4991365;28;20099;-74
2022/01/08 02:49:18;;;;;;;5.00;3.23;;;1.60;96.50;;;;;;4990853;28;20042;-74
2022/01/08 02:51:45;;;;;;;6.72;4.38;;;1.60;96.50;;;;;;4972176;28;20080;-77
2022/01/08 02:54:18;;;;;;;7.77;4.33;;;1.60;96.50;;;;;;4988287;28;20490;-74
2022/01/08 02:56:47;;;;;;;6.37;3.80;;;1.60;96.60;;;;;;5003698;28;20100;-74
2022/01/08 02:59:14;;;;;;;7.18;3.97;;;1.70;96.60;;;;;;4988535;28;20476;-74
2022/01/08 03:01:42;;;;;;;6.10;3.20;;;1.70;96.60;;;;;;5008198;28;20080;-74
2022/01/08 03:04:09;;;;;;;4.93;3.13;;;1.80;96.50;;;;;;4989596;28;21319;-74
2022/01/08 03:06:37;;;;;;;4.38;2.30;;;1.90;96.50;;;;;;4966926;28;20042;-74
2022/01/08 03:09:04;;;;;;;6.05;3.00;;;1.90;96.50;;;;;;4990960;28;20133;-74
2022/01/08 03:11:33;;;;;;;6.38;2.58;;;2.00;96.50;;;;;;5005561;28;20054;-74
2022/01/08 03:14:00;;;;;;;5.40;3.20;;;2.00;96.40;;;;;;4977365;28;20515;-74
2022/01/08 03:16:27;;;;;;;5.23;3.37;;;2.10;96.40;;;;;;4989735;28;20489;-75
2022/01/08 03:18:54;;;;;;;8.10;4.28;;;2.10;96.40;;;;;;5006412;28;20081;-74
2022/01/08 03:21:22;;;;;;;7.78;4.72;;;2.10;96.30;;;;;;4973102;28;20056;-75
2022/01/08 03:24:00;;;;;;;8.93;5.05;;;2.20;96.30;;;;;;4978806;28;20046;-74
2022/01/08 03:26:28;;;;;;;14.48;8.48;;;2.20;96.30;;;;;;4986669;28;20057;-76
2022/01/08 03:28:56;;;;;;;15.30;8.90;;;2.20;96.30;;;;;;4990370;28;20433;-76
2022/01/08 03:31:25;;;;;;;12.13;8.43;;;2.20;96.20;;;;;;5002294;28;20112;-76
2022/01/08 03:33:53;;;;;;;8.25;6.40;;;2.20;96.20;;;;;;4993783;28;20042;-77
2022/01/08 03:36:22;;;;;;;12.13;7.37;;;2.30;96.20;;;;;;4981008;28;20046;-76
2022/01/08 03:38:51;;;;;;;12.30;8.00;;;2.30;96.20;;;;;;4966578;28;20486;-77
2022/01/08 03:41:20;;;;;;;12.53;7.73;;;2.30;96.20;;;;;;5008244;28;20542;-77
2022/01/08 03:43:47;;;;;;;9.70;6.23;;;2.30;96.10;;;;;;4989004;28;20490;-76
2022/01/08 03:46:14;;;;;;;10.63;5.87;;;2.20;96.10;;;;;;4990251;28;20053;-78
2022/01/08 03:48:46;;;;;;;13.40;7.17;;;2.20;96.10;;;;;;4966082;28;20055;-75
2022/01/08 03:51:14;;;;;;;10.70;6.68;;;2.20;96.20;;;;;;5004159;28;20050;-77
2022/01/08 03:53:42;;;;;;;9.63;6.20;;;2.20;96.20;;;;;;4988424;28;20078;-77
2022/01/08 03:56:09;;;;;;;9.37;5.87;;;2.10;96.10;;;;;;4995762;28;20502;-76
2022/01/08 03:58:36;;;;;;;8.40;5.22;;;2.10;96.20;;;;;;4970011;28;20132;-76
2022/01/08 04:01:03;;;;;;;7.90;5.40;;;2.00;96.10;;;;;;4978722;28;20089;-76
2022/01/08 04:03:30;;;;;;;8.67;5.57;;;2.00;96.20;;;;;;4996258;28;20115;-77
2022/01/08 04:05:57;;;;;;;8.07;5.60;;;2.00;96.20;;;;;;4976307;28;20093;-76
2022/01/08 04:08:25;;;;;;;7.93;5.10;;;1.90;96.20;;;;;;5009219;28;20037;-76
2022/01/08 04:10:52;;;;;;;8.60;5.40;;;1.90;96.20;;;;;;4980544;28;20128;-76
2022/01/08 04:13:26;;;;;;;9.37;5.17;;;1.90;96.20;;;;;;4989559;28;20450;-76
2022/01/08 04:15:58;;;;;;;10.05;5.75;;;1.80;96.30;;;;;;5009876;28;20049;-76
2022/01/08 04:18:25;;;;;;;10.82;6.80;;;1.80;96.20;;;;;;4988266;28;20070;-76
2022/01/08 04:23:21;;;;;;;9.60;5.00;;;1.80;96.30;;;;;;4973914;28;20049;-74
2022/01/08 04:25:50;;;;;;;9.80;5.10;;;1.70;96.30;;;;;;4964824;28;20445;-74
2022/01/08 04:28:17;;;;;;;7.27;4.50;;;1.70;96.30;;;;;;4990487;28;20042;-74
2022/01/08 04:30:45;;;;;;;6.77;3.80;;;1.70;96.30;;;;;;5003060;28;20745;-75
2022/01/08 04:33:12;;;;;;;6.27;3.50;;;1.70;96.30;;;;;;5012351;28;20053;-74
2022/01/08 04:35:40;;;;;;;5.78;3.10;;;1.60;96.30;;;;;;4986906;28;20891;-75
2022/01/08 04:38:07;;;;;;;4.70;2.78;;;1.60;96.30;;;;;;4988080;28;20483;-75
2022/01/08 04:40:34;;;;;;;3.63;1.90;;;1.60;96.30;;;;;;4970345;28;20092;-74
2022/01/08 04:43:02;;;;;;;4.07;2.10;;;1.60;96.30;;;;;;4972810;28;20116;-75
2022/01/08 04:45:30;;;;;;;3.28;1.70;;;1.60;96.40;;;;;;4985949;28;20065;-75
2022/01/08 04:48:00;;;;;;;4.67;2.43;;;1.50;96.60;;;;;;4968042;28;20054;-74
2022/01/08 04:50:28;;;;;;;4.53;2.30;;;1.50;96.30;;;;;;4990346;28;20046;-75
2022/01/08 04:52:56;;;;;;;3.33;1.60;;;1.50;96.30;;;;;;4957581;28;20722;-74
2022/01/08 04:55:23;;;;;;;3.33;1.60;;;1.50;96.60;;;;;;4982030;28;20107;-74
2022/01/08 04:57:50;;;;;;;3.17;1.83;;;1.40;96.30;;;;;;4987847;28;20062;-75
2022/01/08 05:00:19;;;;;;;2.30;1.30;;;1.40;96.30;;;;;;5008065;28;20752;-75
2022/01/08 05:02:47;;;;;;;3.87;1.77;;;1.40;96.30;;;;;;4998743;28;20054;-75
2022/01/08 05:05:15;;;;;;;2.47;1.40;;;1.40;96.30;;;;;;5014551;28;20213;-75
2022/01/08 05:07:42;;;;;;;3.43;1.50;;;1.30;96.30;;;;;;4991803;28;20055;-75
2022/01/08 05:10:10;;;;;;;4.23;1.30;;;1.30;96.30;;;;;;4995359;28;20406;-75
2022/01/08 05:12:40;;;;;;;3.00;1.30;;;1.30;96.40;;;;;;4971420;28;20111;-74
2022/01/08 05:15:08;;;;;;;2.53;1.30;;;1.30;96.40;;;;;;4973672;28;20514;-75
2022/01/08 05:17:38;;;;;;;2.67;1.27;;;1.20;96.40;;;;;;4986828;28;20077;-74
2022/01/08 05:20:08;;;;;;;4.37;1.83;;;1.20;96.40;;;;;;4969674;28;20108;-74
2022/01/08 05:22:59;;;;;;;5.20;2.77;;;1.20;96.40;;;;;;4983578;28;20055;-78
2022/01/08 05:25:31;;;;;;;5.57;2.83;;;1.20;96.40;;;;;;4979513;28;20053;-77
2022/01/08 05:27:58;;;;;;;9.43;3.67;;;1.20;96.40;;;;;;4978948;28;20395;-74
2022/01/08 05:30:26;;;;;;;6.57;4.00;;;1.20;96.40;;;;;;4977863;28;20097;-75
2022/01/08 05:32:54;;;;;;;6.07;3.77;;;1.20;96.40;;;;;;4965325;28;20045;-74
2022/01/08 05:35:22;;;;;;;7.73;3.60;;;1.20;96.40;;;;;;4989277;28;20043;-74
2022/01/08 05:37:50;;;;;;;5.63;3.60;;;1.20;96.40;;;;;;4996406;28;20135;-74
2022/01/08 05:40:17;;;;;;;7.53;3.27;;;1.10;96.40;;;;;;4953831;28;20458;-75
2022/01/08 05:42:44;;;;;;;6.60;3.07;;;1.10;96.40;;;;;;4981529;28;20269;-74
2022/01/08 05:45:11;;;;;;;6.23;2.97;;;1.20;96.40;;;;;;5007436;28;20065;-75
2022/01/08 05:47:39;;;;;;;3.83;2.10;;;1.10;96.40;;;;;;4995210;28;20049;-75
2022/01/08 05:50:07;;;;;;;5.13;2.10;;;1.10;96.40;;;;;;4995041;28;20042;-75
2022/01/08 05:52:35;;;;;;;4.00;2.27;;;1.10;96.40;;;;;;4977749;28;20100;-75
2022/01/08 05:55:03;;;;;;;3.70;1.93;;;1.10;96.40;;;;;;4992128;28;20575;-75
2022/01/08 05:57:30;;;;;;;3.10;1.42;;;1.10;96.40;;;;;;4987903;28;20053;-74
2022/01/08 05:59:57;;;;;;;3.13;1.70;;;1.10;96.40;;;;;;4970399;28;20050;-75
2022/01/08 06:02:24;;;;;;;3.27;1.33;;;1.00;96.40;;;;;;4982522;28;20125;-74
2022/01/08 06:04:51;;;;;;;3.73;2.07;;;1.00;96.40;;;;;;5012640;28;20073;-75
2022/01/08 06:07:18;;;;;;;5.97;2.33;;;1.00;96.40;;;;;;4992227;28;20116;-75
2022/01/08 06:09:45;;;;;;;5.87;2.60;;;1.00;96.50;;;;;;5007965;28;20046;-74
2022/01/08 06:12:12;;;;;;;3.63;2.10;;;1.00;96.50;;;;;;4991975;28;20049;-75
2022/01/08 06:14:39;;;;;;;5.13;2.73;;;1.00;96.40;;;;;;5008976;28;20042;-75
2022/01/08 06:17:07;;;;;;;6.53;3.00;;;1.00;96.50;;;;;;4971633;28;20074;-75
2022/01/08 06:19:34;;;;;;;8.07;3.27;;;1.00;96.50;;;;;;5014904;28;20089;-75
2022/01/08 06:22:01;;;;;;;6.20;3.53;;;1.00;96.50;;;;;;4989008;28;20968;-76
2022/01/08 06:24:29;;;;;;;5.17;3.00;;;1.00;96.50;;;;;;4989847;28;20045;-76
2022/01/08 06:26:56;;;;;;;6.50;2.93;;;1.00;96.40;;;;;;4991895;28;20798;-76
2022/01/08 06:29:23;;;;;;;5.10;3.03;;;1.00;96.40;;;;;;4990854;28;20057;-77
2022/01/08 06:31:53;;;;;;;5.17;2.67;;;1.00;96.40;;;;;;5010648;28;20046;-76
2022/01/08 06:34:21;;;;;;;5.47;2.60;;;1.00;96.40;;;;;;4987042;28;20038;-77
2022/01/08 06:36:59;;;;;;;5.77;2.83;;;1.00;96.40;;;;;;4998755;28;20793;-76
2022/01/08 06:39:26;;;;;;;4.13;2.00;;;1.00;96.50;;;;;;4986157;28;20051;-76
2022/01/08 06:41:53;;;;;;;4.87;2.67;;;1.00;96.50;;;;;;4982696;28;20037;-77
2022/01/08 06:44:20;;;;;;;6.07;3.00;;;1.00;96.50;;;;;;4992789;28;20041;-76
2022/01/08 06:46:47;;;;;;;9.07;3.97;;;1.00;96.50;;;;;;4965349;28;20062;-77
2022/01/08 06:49:14;;;;;;;7.43;3.60;;;1.00;96.50;;;;;;4994051;28;20069;-77
2022/01/08 06:51:41;;;;;;;5.57;3.10;;;1.00;96.50;;;;;;4994602;28;20691;-77
2022/01/08 06:54:08;;;;;;;4.90;2.90;;;1.00;96.40;;;;;;4968251;28;20140;-77
2022/01/08 06:56:35;;;;;;;6.33;3.57;;;1.00;96.40;;;;;;4968073;28;20470;-76
2022/01/08 06:59:03;;;;;;;6.50;2.73;;;1.00;96.40;;;;;;4989714;28;20543;-77
2022/01/08 07:01:30;;;;;;;6.90;2.83;;;1.00;96.50;;;;;;4986864;28;20042;-77
2022/01/08 07:03:57;;;;;;;7.83;3.00;;;1.00;96.50;;;;;;4988154;28;20046;-78
2022/01/08 07:06:24;;;;;;;6.40;2.97;;;1.00;96.50;;;;;;4976018;28;20052;-77
2022/01/08 07:08:53;;;;;;;5.80;3.23;;;1.00;96.50;;;;;;4990331;28;20069;-76
2022/01/08 07:11:20;;;;;;;5.27;1.90;;;1.00;96.70;;;;;;4999114;28;20049;-76
2022/01/08 07:13:47;;;;;;;4.33;2.20;;;1.00;96.40;;;;;;4990078;28;20046;-77
2022/01/08 07:16:14;;;;;;;3.93;1.60;;;1.10;96.40;;;;;;4996202;28;20058;-77
2022/01/08 07:18:41;;;;;;;4.03;1.63;;;1.00;96.40;;;;;;4970371;28;20038;-78
2022/01/08 07:21:08;;;;;;;3.10;1.37;;;1.00;96.50;;;;;;5007549;28;20140;-76
2022/01/08 07:23:36;;;;;;;3.00;1.13;;;1.10;96.50;;;;;;4993466;28;20049;-76
2022/01/08 07:26:03;;;;;;;3.23;1.30;;;1.10;96.50;;;;;;4964590;28;20112;-76
2022/01/08 07:28:29;;;;;;;3.67;1.50;;;1.10;96.50;;;;;;4975011;28;20099;-75
2022/01/08 07:30:56;;;;;;;3.83;1.33;;;1.10;96.50;;;;;;4979035;28;20054;-75
2022/01/08 07:33:23;;;;;;;2.80;1.10;;;1.10;96.50;;;;;;4986065;28;20563;-76
2022/01/08 07:35:50;;;;;;;3.10;1.27;;;1.10;96.50;;;;;;4977549;28;20468;-76
2022/01/08 07:38:18;;;;;;;2.53;1.23;;;1.10;96.50;;;;;;4978748;28;20069;-75
2022/01/08 07:40:51;;;;;;;2.57;1.20;;;1.10;96.50;;;;;;4979459;28;20144;-74
2022/01/08 07:43:20;;;;;;;3.57;1.30;;;1.10;96.40;;;;;;4971676;28;21363;-74
2022/01/08 07:45:47;;;;;;;3.03;1.20;;;1.10;96.40;;;;;;4982196;28;20077;-74
2022/01/08 07:48:15;;;;;;;2.30;1.00;;;1.10;96.40;;;;;;4958535;28;20054;-74
2022/01/08 07:50:43;;;;;;;3.23;1.10;;;1.10;96.40;;;;;;4997579;28;20057;-74
2022/01/08 07:53:10;;;;;;;2.90;1.20;;;1.10;96.40;;;;;;4993854;28;20046;-74
2022/01/08 07:55:45;;;;;;;2.10;0.90;;;1.10;96.50;;;;;;4995194;28;20054;-74
2022/01/08 07:58:12;;;;;;;3.70;1.07;;;1.20;96.50;;;;;;4978620;28;20846;-74
2022/01/08 08:00:39;;;;;;;2.60;1.00;;;1.20;96.40;;;;;;4977235;28;20107;-74
2022/01/08 08:03:06;;;;;;;3.30;0.80;;;1.20;96.40;;;;;;4962626;28;20081;-74
2022/01/08 08:05:33;;;;;;;3.47;1.20;;;1.30;96.50;;;;;;4969871;28;20137;-74
2022/01/08 08:08:00;;;;;;;2.27;0.90;;;1.30;96.40;;;;;;4962207;28;20054;-74
2022/01/08 08:10:29;;;;;;;4.00;1.53;;;1.40;96.40;;;;;;4996447;28;20042;-74
2022/01/08 08:12:56;;;;;;;3.50;1.53;;;1.40;96.40;;;;;;4987827;28;20444;-73
2022/01/08 08:15:23;;;;;;;2.10;0.87;;;1.40;96.40;;;;;;4989664;28;20139;-77
2022/01/08 08:17:53;;;;;;;2.70;0.97;;;1.50;96.40;;;;;;4956592;28;20054;-76
2022/01/08 08:20:20;;;;;;;3.13;1.23;;;1.50;96.30;;;;;;4987080;28;20077;-76
2022/01/08 08:22:47;;;;;;;2.33;0.90;;;1.60;96.30;;;;;;4976660;28;20081;-76
2022/01/08 08:25:14;;;;;;;1.77;0.90;;;1.60;96.30;;;;;;4963802;28;20108;-77
2022/01/08 08:27:41;;;;;;;2.27;1.10;;;1.60;96.30;;;;;;5003159;28;20084;-76
2022/01/08 08:30:10;;;;;;;4.03;1.33;;;1.60;96.30;;;;;;4987451;28;20100;-77
2022/01/08 08:32:37;;;;;;;3.40;1.67;;;1.70;96.40;;;;;;4981904;28;20834;-77
2022/01/08 08:35:05;;;;;;;2.50;1.20;;;1.80;96.30;;;;;;4980602;28;21323;-77
2022/01/08 08:37:34;;;;;;;3.57;1.40;;;1.80;96.30;;;;;;4981098;28;20046;-77
2022/01/08 08:40:05;;;;;;;3.67;1.40;;;1.80;96.30;;;;;;4997452;28;20133;-76
2022/01/08 08:42:33;;;;;;;5.00;2.13;;;1.90;96.30;;;;;;4977121;28;20050;-76
2022/01/08 08:45:00;;;;;;;2.75;1.55;;;1.90;96.20;;;;;;4986827;28;20486;-77
2022/01/08 08:47:27;;;;;;;3.05;1.70;;;1.90;96.20;;;;;;4981582;28;20763;-77
2022/01/08 08:49:54;;;;;;;4.83;2.50;;;2.00;96.20;;;;;;5018929;28;20116;-76
2022/01/08 08:52:23;;;;;;;4.50;2.33;;;2.00;96.20;;;;;;4993032;28;20054;-77
2022/01/08 08:54:50;;;;;;;4.73;2.90;;;2.10;96.20;;;;;;4989941;28;20049;-77
2022/01/08 08:57:17;;;;;;;4.25;2.17;;;2.10;96.10;;;;;;4989709;28;20045;-76
2022/01/08 08:59:44;;;;;;;5.13;2.58;;;2.10;96.10;;;;;;4994185;28;20802;-76
2022/01/08 09:02:11;;;;;;;4.03;2.43;;;2.20;96.10;;;;;;4964275;28;20077;-77
2022/01/08 09:04:40;;;;;;;3.67;1.90;;;2.20;96.10;;;;;;4967255;28;20131;-76
2022/01/08 09:07:08;;;;;;;4.10;2.53;;;2.30;96.10;;;;;;4998428;28;20053;-76
2022/01/08 09:09:36;;;;;;;6.13;3.77;;;2.30;96.10;;;;;;5006480;28;20084;-76
2022/01/08 09:12:03;;;;;;;10.35;4.75;;;2.30;96.00;;;;;;4991884;28;20050;-77
2022/01/08 09:14:30;;;;;;;6.15;3.83;;;2.30;96.00;;;;;;4981910;28;20136;-76
2022/01/08 09:17:02;;;;;;;6.60;4.00;;;2.30;96.00;;;;;;4983598;28;20052;-77
2022/01/08 09:19:30;;;;;;;6.22;4.45;;;2.40;96.00;;;;;;4985282;28;20069;-76
2022/01/08 09:21:57;;;;;;;7.60;4.53;;;2.40;96.00;;;;;;4974612;28;20048;-76
2022/01/08 09:24:24;;;;;;;7.28;4.63;;;2.40;95.90;;;;;;4965918;28;20055;-77
2022/01/08 09:26:59;;;;;;;7.20;4.65;;;2.40;95.90;;;;;;4955592;28;20054;-77
2022/01/08 09:29:26;;;;;;;7.30;3.67;;;2.50;95.90;;;;;;4984653;28;20055;-76
2022/01/08 09:31:56;;;;;;;6.47;3.88;;;2.50;95.90;;;;;;5003155;28;20135;-77
2022/01/08 09:34:23;;;;;;;7.30;3.90;;;2.60;96.00;;;;;;4960262;28;20773;-77
2022/01/08 09:36:50;;;;;;;8.73;4.57;;;2.60;95.90;;;;;;4974225;28;20465;-77
2022/01/08 09:39:18;;;;;;;8.23;5.30;;;2.70;95.90;;;;;;4956671;28;20120;-77
2022/01/08 09:41:45;;;;;;;7.40;4.40;;;2.70;95.90;;;;;;4990167;28;20050;-78
2022/01/08 09:44:12;;;;;;;6.93;4.00;;;2.70;95.80;;;;;;4980864;28;20042;-77
2022/01/08 09:46:40;;;;;;;11.83;5.87;;;2.70;95.80;;;;;;5013874;28;20066;-77
2022/01/08 09:49:07;;;;;;;11.53;5.20;;;2.70;95.70;;;;;;4991087;28;20066;-77
2022/01/08 09:51:35;;;;;;;8.30;4.70;;;2.80;95.80;;;;;;4966341;28;20065;-77
2022/01/08 09:54:02;;;;;;;6.87;4.00;;;2.80;95.80;;;;;;5001226;28;20136;-77
2022/01/08 09:56:31;;;;;;;7.77;3.70;;;2.80;95.80;;;;;;4991800;28;20454;-77
2022/01/08 09:58:59;;;;;;;8.15;4.53;;;2.90;95.80;;;;;;4963001;28;20053;-77
2022/01/08 10:01:32;;;;;;;9.50;4.47;;;2.90;95.70;;;;;;4983130;28;20109;-77
2022/01/08 10:04:00;;;;;;;9.95;5.63;;;2.90;95.70;;;;;;4992713;28;20058;-77
2022/01/08 10:06:30;;;;;;;14.57;7.40;;;2.90;95.60;;;;;;4979713;28;20042;-76
2022/01/08 10:08:58;;;;;;;11.80;7.13;;;2.90;95.60;;;;;;4971759;28;20046;-77
2022/01/08 10:11:27;;;;;;;12.00;7.05;;;3.00;95.70;;;;;;4977272;28;20380;-77
2022/01/08 10:14:02;;;;;;;13.32;6.85;;;3.00;95.60;;;;;;4976243;28;20047;-76
2022/01/08 10:19:20;;;;;;;13.93;8.05;;;3.00;95.60;;;;;;4985894;28;20085;-77
2022/01/08 10:21:48;;;;;;;16.95;9.20;;;3.10;95.60;;;;;;4995780;28;20049;-77
2022/01/08 10:24:26;;;;;;;14.68;9.30;;;3.10;95.50;;;;;;4980561;28;20111;-77
2022/01/08 10:27:03;;;;;;;15.10;8.18;;;3.10;95.50;;;;;;4986074;28;20046;-77
2022/01/08 10:29:31;;;;;;;14.60;7.70;;;3.10;95.50;;;;;;4979172;28;20455;-78
2022/01/08 10:31:59;;;;;;;15.00;8.20;;;3.10;95.80;;;;;;5014178;28;20041;-77
2022/01/08 10:34:30;;;;;;;11.50;6.63;;;3.10;95.50;;;;;;5001801;28;20034;-77
2022/01/08 10:37:04;;;;;;;13.38;6.82;;;3.20;95.60;;;;;;5015172;28;20049;-78
2022/01/08 10:39:34;;;;;;;11.98;6.55;;;3.20;95.50;;;;;;4989406;28;20510;-77
2022/01/08 10:42:09;;;;;;;15.20;8.37;;;3.30;95.50;;;;;;4991735;28;20450;-77
2022/01/08 10:44:37;;;;;;;18.27;9.77;;;3.30;95.50;;;;;;4977931;28;21254;-77
2022/01/08 10:47:06;;;;;;;16.42;9.82;;;3.30;95.40;;;;;;4975867;28;20061;-77
2022/01/08 10:50:00;;;;;;;13.53;7.93;;;3.30;95.40;;;;;;4994246;28;20049;-77
2022/01/08 10:52:28;;;;;;;12.20;7.15;;;3.40;95.40;;;;;;4995530;28;20439;-77
2022/01/08 10:54:59;;;;;;;14.98;8.25;;;3.50;95.40;;;;;;5013022;28;20045;-77
2022/01/08 10:57:45;;;;;;;15.13;8.50;;;3.50;95.30;;;;;;4978338;28;20050;-78
2022/01/08 11:00:14;;;;;;;12.70;7.30;;;3.60;95.30;;;;;;5025276;28;20100;-77
2022/01/08 11:02:43;;;;;;;17.40;8.13;;;3.70;95.30;;;;;;4994519;28;20041;-78
2022/01/08 11:05:11;;;;;;;16.33;8.80;;;3.70;95.30;;;;;;4990562;28;20517;-77
2022/01/08 11:07:41;;;;;;;14.88;9.02;;;3.80;95.20;;;;;;4994995;28;20050;-78
2022/01/08 11:10:19;;;;;;;17.15;9.32;;;3.80;95.10;;;;;;4993586;28;20129;-78
2022/01/08 11:12:48;;;;;;;15.65;9.75;;;3.80;95.00;;;;;;4985956;28;20047;-78
2022/01/08 11:17:56;;;;;;;16.17;9.18;;;3.90;95.00;;;;;;4993346;28;20048;-77
2022/01/08 11:20:44;;;;;;;17.88;9.35;;;3.90;95.00;;;;;;5003022;28;20045;-78
2022/01/08 11:23:14;;;;;;;17.13;10.20;;;3.90;95.00;;;;;;4965705;28;20054;-78
2022/01/08 11:25:44;;;;;;;20.27;10.80;;;3.90;94.90;;;;;;4976237;28;20057;-78
2022/01/08 11:28:13;;;;;;;22.02;10.98;;;3.90;94.90;;;;;;4997350;28;20179;-77
2022/01/08 11:30:43;;;;;;;22.17;11.05;;;3.90;94.80;;;;;;4976067;28;20047;-78
2022/01/08 11:33:34;;;;;;;25.05;12.27;;;4.00;94.90;;;;;;4985559;28;20634;-78
2022/01/08 11:36:01;;;;;;;26.02;12.63;;;4.00;94.80;;;;;;4993091;28;20061;-78
2022/01/08 11:38:29;;;;;;;28.00;12.98;;;3.90;94.60;;;;;;4976167;28;20486;-78
2022/01/08 11:40:59;;;;;;;22.75;12.00;;;3.90;94.70;;;;;;4981449;28;20046;-78
2022/01/08 11:43:29;;;;;;;24.90;12.57;;;4.00;94.80;;;;;;4988160;28;20042;-77
2022/01/08 11:46:06;;;;;;;20.17;10.68;;;4.00;94.80;;;;;;4987589;28;20047;-77
2022/01/08 11:48:45;;;;;;;23.35;11.02;;;4.10;94.70;;;;;;4986736;28;20049;-78
2022/01/08 11:51:23;;;;;;;20.42;10.10;;;4.10;94.70;;;;;;4987919;28;20085;-77
2022/01/08 11:53:56;;;;;;;18.35;9.48;;;4.10;94.60;;;;;;5009065;28;20046;-78
2022/01/08 11:56:25;;;;;;;;;;;4.10;94.60;;;;;;4980320;28;20494;-77
2022/01/08 11:59:18;;;;;;;19.70;9.75;;;4.10;94.60;;;;;;5013034;28;19921;-78
2022/01/08 12:02:12;;;;;;;18.57;9.37;;;4.20;94.60;;;;;;4995368;28;20050;-78
2022/01/08 12:04:41;;;;;;;19.90;9.98;;;4.20;94.60;;;;;;4984701;28;20050;-77
2022/01/08 12:07:38;;;;;;;21.60;10.25;;;4.20;94.60;;;;;;5002271;28;20100;-76
2022/01/08 12:10:30;;;;;;;22.17;10.65;;;4.20;94.50;;;;;;4977727;28;20879;-78
2022/01/08 12:13:00;;;;;;;17.85;10.05;;;4.20;94.50;;;;;;4973092;28;20092;-78
2022/01/08 12:15:42;;;;;;;17.52;10.60;;;4.20;94.50;;;;;;5011429;28;20034;-78
2022/01/08 12:18:10;;;;;;;14.63;8.95;;;4.20;94.50;;;;;;4988978;28;20112;-77
2022/01/08 12:20:48;;;;;;;20.65;10.63;;;4.30;94.50;;;;;;5019161;28;20073;-78
2022/01/08 12:23:34;;;;;;;18.17;10.85;;;4.20;94.50;;;;;;5011318;28;20060;-78
2022/01/08 12:26:21;;;;;;;15.85;8.32;;;4.20;94.50;;;;;;4993894;28;20110;-79
2022/01/08 12:28:59;;;;;;;28.30;15.35;;;4.30;94.50;;;;;;4964143;28;20184;-80
2022/01/08 12:31:31;;;;;;;37.13;19.33;;;4.20;94.50;;;;;;5001377;28;20448;-79
2022/01/08 12:34:22;;;;;;;27.77;15.80;;;4.20;94.50;;;;;;4977600;28;20073;-82
2022/01/08 12:36:52;;;;;;;26.27;12.45;;;4.30;94.50;;;;;;4976812;28;20053;-79
2022/01/08 12:39:24;;;;;;;22.52;11.85;;;4.30;94.50;;;;;;4978795;28;20112;-78
2022/01/08 12:42:20;;;;;;;16.67;8.75;;;4.30;94.50;;;;;;4994707;28;20057;-78
2022/01/08 12:45:13;;;;;;;18.75;9.15;;;4.30;94.50;;;;;;5029055;28;20554;-78
2022/01/08 12:48:00;;;;;;;12.30;6.47;;;4.30;94.40;;;;;;4985828;28;20463;-79
2022/01/08 12:50:52;;;;;;;12.50;7.28;;;4.40;94.50;;;;;;4994301;28;20062;-78
2022/01/08 12:53:21;;;;;;;15.45;7.03;;;4.40;94.50;;;;;;4999014;28;20041;-80
2022/01/08 12:55:57;;;;;;;13.63;6.28;;;4.40;94.50;;;;;;4989131;28;20535;-78
2022/01/08 12:58:32;;;;;;;15.70;7.50;;;4.40;94.40;;;;;;4987045;28;20088;-79
2022/01/08 13:01:10;;;;;;;22.00;12.50;;;4.40;94.40;;;;;;5012151;28;20033;-78
2022/01/08 13:03:43;;;;;;;25.98;13.00;;;4.40;94.40;;;;;;5008962;28;20045;-79
2022/01/08 13:06:13;;;;;;;28.55;15.70;;;4.40;94.40;;;;;;5012973;28;20041;-78
2022/01/08 13:08:45;;;;;;;30.65;19.15;;;4.40;94.30;;;;;;4989974;28;20599;-79
2022/01/08 13:11:15;;;;;;;19.83;13.45;;;4.40;94.30;;;;;;5006298;28;20524;-77
2022/01/08 13:13:55;;;;;;;18.52;11.32;;;4.40;94.20;;;;;;5012589;28;20042;-79
2022/01/08 13:16:22;;;;;;;18.98;9.43;;;4.40;94.20;;;;;;4999527;28;20038;-78
2022/01/08 13:19:03;;;;;;;15.90;9.73;;;4.40;94.20;;;;;;4982256;28;20046;-78
2022/01/08 13:21:33;;;;;;;16.15;9.73;;;4.30;94.20;;;;;;4989139;28;20101;-78
2022/01/08 13:24:21;;;;;;;21.98;11.45;;;4.30;94.30;;;;;;5014508;28;20053;-78
2022/01/08 13:26:59;;;;;;;18.23;10.10;;;4.30;94.30;;;;;;4998722;28;20103;-77
2022/01/08 13:29:38;;;;;;;16.35;8.18;;;4.20;94.30;;;;;;4983505;28;20043;-77